createdAt,value
2019-02-27T00:00:38.056Z,41.20
2019-02-27T00:01:49.634Z,47.00
2019-02-27T00:02:56.671Z,46.37
2019-02-27T00:04:03.864Z,40.43
2019-02-27T00:05:10.788Z,43.02
2019-02-27T00:06:17.473Z,40.90
2019-02-27T00:07:24.239Z,45.33
2019-02-27T00:08:30.912Z,42.48
2019-02-27T00:09:37.880Z,40.73
2019-02-27T00:10:44.570Z,41.90
2019-02-27T00:11:51.588Z,46.73
2019-02-27T00:12:58.596Z,47.93
2019-02-27T00:14:05.822Z,47.78
2019-02-27T00:15:12.748Z,44.87
2019-02-27T00:16:19.463Z,40.63
2019-02-27T00:17:26.273Z,49.50
2019-02-27T00:18:32.917Z,48.38
2019-02-27T00:19:40.182Z,43.30
2019-02-27T00:20:47.234Z,45.80
2019-02-27T00:21:53.968Z,41.63
2019-02-27T00:23:00.631Z,45.43
2019-02-27T00:24:07.291Z,46.20
2019-02-27T00:25:14.010Z,50.35
2019-02-27T00:26:20.732Z,47.38
2019-02-27T00:27:27.457Z,44.07
2019-02-27T00:28:34.560Z,46.95
2019-02-27T00:29:41.236Z,45.95
2019-02-27T00:30:47.971Z,44.98
2019-02-27T00:31:54.686Z,47.40
2019-02-27T00:33:01.443Z,42.85
2019-02-27T00:34:08.264Z,44.25
2019-02-27T00:35:14.957Z,48.40
2019-02-27T00:36:21.629Z,51.37
2019-02-27T00:37:28.818Z,41.05
2019-02-27T00:38:35.949Z,43.35
2019-02-27T00:39:42.903Z,39.80
2019-02-27T00:40:49.567Z,51.90
2019-02-27T00:41:56.274Z,45.30
2019-02-27T00:43:03.079Z,42.08
2019-02-27T00:44:10.068Z,37.70
2019-02-27T00:45:16.998Z,37.45
2019-02-27T00:46:24.368Z,43.25
2019-02-27T00:47:31.044Z,46.18
2019-02-27T00:48:38.449Z,44.70
2019-02-27T00:49:45.867Z,44.18
2019-02-27T00:50:53.030Z,43.90
2019-02-27T00:52:00.390Z,37.25
2019-02-27T00:53:07.511Z,38.78
2019-02-27T00:54:14.224Z,47.08
2019-02-27T00:55:20.954Z,44.27
2019-02-27T00:56:27.661Z,37.80
2019-02-27T00:57:34.352Z,47.90
2019-02-27T00:58:41.326Z,51.43
2019-02-27T00:59:48.082Z,39.27
2019-02-27T01:00:55.079Z,45.77
2019-02-27T01:02:01.777Z,40.48
2019-02-27T01:03:08.749Z,40.40
2019-02-27T01:04:15.491Z,38.78
2019-02-27T01:05:22.214Z,43.15
2019-02-27T01:06:29.208Z,48.23
2019-02-27T01:07:35.923Z,40.28
2019-02-27T01:08:43.208Z,43.13
2019-02-27T01:09:50.574Z,56.68
2019-02-27T01:10:57.542Z,40.57
2019-02-27T01:12:04.414Z,44.53
2019-02-27T01:13:11.185Z,40.55
2019-02-27T01:14:18.391Z,41.25
2019-02-27T01:15:25.546Z,46.10
2019-02-27T01:16:32.662Z,39.15
2019-02-27T01:17:39.710Z,44.73
2019-02-27T01:18:46.410Z,41.88
2019-02-27T01:19:53.903Z,43.92
2019-02-27T01:21:00.571Z,38.40
2019-02-27T01:22:07.261Z,43.85
2019-02-27T01:23:13.957Z,40.60
2019-02-27T01:24:20.648Z,44.75
2019-02-27T01:25:27.817Z,40.20
2019-02-27T01:26:34.824Z,38.70
2019-02-27T01:27:41.873Z,39.67
2019-02-27T01:28:48.606Z,39.90
2019-02-27T01:29:55.619Z,40.55
2019-02-27T01:31:02.360Z,40.85
2019-02-27T01:32:09.062Z,33.75
2019-02-27T01:33:15.714Z,42.58
2019-02-27T01:34:22.770Z,38.70
2019-02-27T01:35:30.092Z,40.98
2019-02-27T01:36:36.733Z,43.65
2019-02-27T01:37:43.412Z,43.47
2019-02-27T01:38:50.347Z,42.75
2019-02-27T01:39:57.374Z,43.20
2019-02-27T01:41:04.459Z,35.10
2019-02-27T01:42:11.409Z,42.03
2019-02-27T01:43:18.156Z,37.80
2019-02-27T01:44:24.878Z,42.75
2019-02-27T01:45:31.902Z,44.60
2019-02-27T01:46:38.607Z,32.42
2019-02-27T01:47:45.368Z,40.88
2019-02-27T01:48:52.406Z,41.90
2019-02-27T01:49:59.462Z,35.85
2019-02-27T01:51:06.522Z,45.93
2019-02-27T01:52:13.313Z,45.73
2019-02-27T01:53:20.018Z,35.68
2019-02-27T01:54:26.985Z,35.92
2019-02-27T01:55:33.994Z,38.50
2019-02-27T01:56:41.035Z,44.43
2019-02-27T01:57:47.742Z,36.35
2019-02-27T01:58:54.416Z,40.45
2019-02-27T02:00:01.155Z,38.30
2019-02-27T02:01:08.069Z,37.00
2019-02-27T02:02:15.098Z,36.77
2019-02-27T02:03:21.810Z,36.75
2019-02-27T02:04:28.894Z,36.53
2019-02-27T02:05:36.041Z,34.90
2019-02-27T02:06:42.734Z,41.42
2019-02-27T02:07:49.944Z,34.97
2019-02-27T02:09:42.056Z,37.80
2019-02-27T02:10:48.779Z,44.15
2019-02-27T02:11:55.476Z,36.58
2019-02-27T02:13:40.304Z,44.60
2019-02-27T02:14:56.256Z,39.92
2019-02-27T02:16:41.947Z,39.78
2019-02-27T02:18:54.071Z,33.70
2019-02-27T02:20:45.282Z,34.98
2019-02-27T02:22:46.357Z,37.70
2019-02-27T02:24:46.854Z,39.27
2019-02-27T02:26:38.302Z,35.78
2019-02-27T02:28:56.213Z,38.30
2019-02-27T02:30:56.694Z,43.13
2019-02-27T02:33:16.175Z,38.70
2019-02-27T02:35:20.041Z,36.15
2019-02-27T02:37:11.238Z,38.70
2019-02-27T02:39:18.067Z,42.67
2019-02-27T02:41:46.256Z,36.33
2019-02-27T02:43:41.990Z,35.83
2019-02-27T02:45:38.783Z,37.55
2019-02-27T02:47:21.221Z,38.88
2019-02-27T02:49:14.101Z,33.48
2019-02-27T02:51:47.454Z,39.88
2019-02-27T02:53:37.101Z,41.92
2019-02-27T02:55:38.673Z,36.70
2019-02-27T02:57:18.770Z,39.25
2019-02-27T02:59:12.299Z,41.53
2019-02-27T03:00:54.414Z,43.33
2019-02-27T03:02:41.297Z,43.52
2019-02-27T03:04:39.243Z,39.33
2019-02-27T03:06:18.312Z,43.02
2019-02-27T03:08:19.807Z,37.42
2019-02-27T03:10:08.305Z,35.15
2019-02-27T03:12:04.087Z,38.65
2019-02-27T03:14:01.782Z,41.13
2019-02-27T03:15:45.411Z,41.37
2019-02-27T03:17:34.849Z,39.67
2019-02-27T03:19:43.704Z,37.67
2019-02-27T03:21:40.598Z,40.45
2019-02-27T03:23:29.508Z,34.38
2019-02-27T03:25:05.797Z,35.35
2019-02-27T03:27:00.890Z,35.13
2019-02-27T03:28:59.535Z,38.65
2019-02-27T03:30:58.138Z,35.23
2019-02-27T03:32:18.543Z,39.05
2019-02-27T03:34:48.187Z,39.38
2019-02-27T03:36:43.089Z,41.18
2019-02-27T03:38:13.417Z,38.98
2019-02-27T03:39:59.978Z,42.95
2019-02-27T03:42:00.056Z,41.15
2019-02-27T03:43:45.970Z,39.10
2019-02-27T03:45:47.648Z,37.30
2019-02-27T03:47:32.412Z,38.85
2019-02-27T03:49:19.788Z,42.62
2019-02-27T03:51:05.038Z,41.63
2019-02-27T03:53:20.806Z,38.35
2019-02-27T03:55:06.229Z,36.13
2019-02-27T03:57:03.532Z,42.93
2019-02-27T03:58:50.665Z,34.63
2019-02-27T04:00:37.040Z,38.02
2019-02-27T04:02:55.955Z,34.40
2019-02-27T04:05:06.929Z,37.15
2019-02-27T04:06:36.399Z,35.20
2019-02-27T04:08:43.560Z,41.53
2019-02-27T04:09:46.595Z,38.98
2019-02-27T04:10:53.332Z,36.35
2019-02-27T04:12:00.535Z,44.15
2019-02-27T04:13:07.474Z,36.23
2019-02-27T04:14:40.522Z,34.00
2019-02-27T04:15:42.884Z,36.90
2019-02-27T04:16:49.924Z,37.38
2019-02-27T04:17:54.034Z,37.42
2019-02-27T04:19:04.527Z,35.55
2019-02-27T04:20:14.594Z,32.90
2019-02-27T04:21:25.076Z,32.98
2019-02-27T04:22:27.833Z,38.25
2019-02-27T04:23:35.177Z,38.53
2019-02-27T04:24:42.565Z,46.28
2019-02-27T04:25:49.572Z,38.33
2019-02-27T04:26:56.293Z,35.83
2019-02-27T04:28:03.003Z,36.28
2019-02-27T04:29:10.154Z,34.75
2019-02-27T04:30:17.687Z,32.83
2019-02-27T04:31:29.612Z,40.47
2019-02-27T04:32:33.099Z,42.05
2019-02-27T04:33:40.245Z,33.20
2019-02-27T04:34:47.001Z,36.65
2019-02-27T04:35:53.713Z,38.40
2019-02-27T04:37:00.398Z,39.35
2019-02-27T04:38:07.094Z,33.93
2019-02-27T04:39:14.238Z,36.88
2019-02-27T04:40:21.034Z,33.05
2019-02-27T04:41:27.718Z,33.90
2019-02-27T04:42:34.441Z,40.20
2019-02-27T04:43:41.434Z,34.25
2019-02-27T04:44:48.142Z,38.55
2019-02-27T04:45:55.234Z,35.25
2019-02-27T04:47:01.959Z,41.88
2019-02-27T04:48:08.673Z,32.35
2019-02-27T04:49:15.379Z,37.42
2019-02-27T04:50:22.195Z,32.50
2019-02-27T04:51:28.875Z,37.23
2019-02-27T04:52:35.569Z,34.53
2019-02-27T04:53:42.249Z,38.45
2019-02-27T04:54:48.990Z,35.00
2019-02-27T04:55:55.940Z,34.88
2019-02-27T04:57:02.960Z,39.10
2019-02-27T04:58:09.755Z,36.88
2019-02-27T04:59:18.751Z,36.90
2019-02-27T05:00:26.269Z,37.03
2019-02-27T05:01:36.421Z,37.05
2019-02-27T05:02:41.600Z,34.40
2019-02-27T05:03:48.659Z,40.63
2019-02-27T05:04:55.974Z,43.15
2019-02-27T05:06:02.673Z,34.53
2019-02-27T05:07:09.516Z,33.28
2019-02-27T05:08:16.301Z,33.58
2019-02-27T05:09:23.609Z,39.05
2019-02-27T05:10:30.483Z,36.48
2019-02-27T05:11:37.186Z,32.00
2019-02-27T05:12:47.816Z,37.17
2019-02-27T05:13:54.329Z,35.17
2019-02-27T05:15:00.856Z,31.37
2019-02-27T05:16:09.064Z,36.35
2019-02-27T05:17:15.783Z,35.38
2019-02-27T05:18:22.503Z,36.20
2019-02-27T05:19:29.333Z,36.73
2019-02-27T05:20:36.387Z,36.70
2019-02-27T05:21:43.416Z,37.70
2019-02-27T05:22:50.426Z,37.55
2019-02-27T05:23:57.124Z,34.43
2019-02-27T05:25:04.313Z,37.65
2019-02-27T05:26:11.039Z,34.00
2019-02-27T05:27:17.993Z,38.73
2019-02-27T05:28:24.728Z,37.65
2019-02-27T05:29:31.392Z,44.80
2019-02-27T05:30:38.160Z,39.15
2019-02-27T05:31:45.279Z,35.43
2019-02-27T05:32:51.962Z,34.90
2019-02-27T05:33:59.435Z,32.75
2019-02-27T05:35:06.350Z,37.30
2019-02-27T05:36:13.171Z,44.88
2019-02-27T05:37:20.131Z,41.20
2019-02-27T05:38:26.917Z,38.20
2019-02-27T05:39:33.883Z,35.95
2019-02-27T05:40:41.090Z,36.73
2019-02-27T05:41:47.812Z,34.75
2019-02-27T05:42:54.832Z,42.55
2019-02-27T05:44:01.601Z,38.55
2019-02-27T05:45:10.605Z,41.60
2019-02-27T05:46:17.313Z,46.77
2019-02-27T05:47:24.349Z,40.00
2019-02-27T05:48:31.532Z,46.65
2019-02-27T05:49:38.417Z,40.50
2019-02-27T05:50:45.603Z,42.00
2019-02-27T05:51:52.267Z,36.73
2019-02-27T05:52:58.941Z,35.58
2019-02-27T05:54:05.644Z,40.08
2019-02-27T05:55:12.385Z,40.40
2019-02-27T05:56:19.459Z,49.93
2019-02-27T05:57:26.128Z,40.45
2019-02-27T05:58:32.843Z,42.75
2019-02-27T05:59:39.581Z,42.95
2019-02-27T06:00:46.749Z,43.05
2019-02-27T06:01:53.481Z,44.80
2019-02-27T06:03:00.793Z,36.23
2019-02-27T06:04:07.779Z,38.73
2019-02-27T06:05:14.792Z,42.80
2019-02-27T06:06:21.447Z,44.93
2019-02-27T06:07:28.502Z,41.73
2019-02-27T06:08:38.007Z,44.25
2019-02-27T06:09:44.492Z,39.88
2019-02-27T06:10:55.136Z,42.08
2019-02-27T06:11:59.636Z,41.23
2019-02-27T06:13:06.318Z,36.65
2019-02-27T06:14:12.988Z,43.23
2019-02-27T06:15:19.694Z,47.35
2019-02-27T06:16:26.421Z,38.05
2019-02-27T06:17:43.092Z,42.83
2019-02-27T06:18:42.871Z,43.35
2019-02-27T06:19:49.585Z,42.73
2019-02-27T06:20:56.318Z,39.73
2019-02-27T06:22:03.014Z,42.40
2019-02-27T06:23:10.029Z,41.37
2019-02-27T06:24:16.755Z,44.13
2019-02-27T06:25:24.087Z,40.08
2019-02-27T06:26:32.474Z,37.25
2019-02-27T06:27:39.960Z,35.58
2019-02-27T06:28:47.155Z,40.88
2019-02-27T06:29:56.643Z,43.25
2019-02-27T06:31:03.230Z,40.03
2019-02-27T06:32:12.269Z,42.05
2019-02-27T06:33:18.420Z,41.65
2019-02-27T06:34:25.428Z,40.30
2019-02-27T06:35:34.253Z,35.58
2019-02-27T06:36:42.751Z,46.08
2019-02-27T06:37:50.746Z,45.25
2019-02-27T06:39:00.413Z,37.35
2019-02-27T06:40:08.082Z,41.48
2019-02-27T06:41:15.654Z,47.75
2019-02-27T06:42:23.023Z,35.45
2019-02-27T06:43:29.735Z,36.10
2019-02-27T06:44:36.594Z,34.73
2019-02-27T06:45:46.387Z,39.65
2019-02-27T06:46:54.623Z,43.87
2019-02-27T06:48:01.518Z,49.38
2019-02-27T06:49:08.538Z,37.50
2019-02-27T06:50:16.319Z,42.65
2019-02-27T06:51:23.291Z,39.92
2019-02-27T06:52:30.267Z,41.05
2019-02-27T06:53:37.369Z,39.35
2019-02-27T06:54:44.062Z,45.33
2019-02-27T06:55:51.094Z,36.13
2019-02-27T06:56:58.066Z,45.05
2019-02-27T06:58:04.795Z,46.92
2019-02-27T06:59:12.117Z,41.65
2019-02-27T07:00:20.462Z,38.53
2019-02-27T07:01:27.185Z,36.85
2019-02-27T07:02:34.172Z,42.38
2019-02-27T07:03:41.373Z,38.80
2019-02-27T07:04:48.737Z,33.63
2019-02-27T07:05:55.427Z,33.50
2019-02-27T07:07:02.166Z,39.05
2019-02-27T07:08:08.910Z,39.18
2019-02-27T07:09:15.571Z,41.23
2019-02-27T07:10:22.620Z,32.55
2019-02-27T07:11:29.271Z,36.85
2019-02-27T07:12:35.980Z,35.90
2019-02-27T07:13:43.488Z,39.08
2019-02-27T07:14:50.221Z,35.28
2019-02-27T07:15:57.162Z,41.88
2019-02-27T07:17:04.224Z,39.58
2019-02-27T07:18:11.916Z,33.83
2019-02-27T07:19:19.116Z,34.80
2019-02-27T07:20:25.810Z,36.42
2019-02-27T07:21:33.488Z,43.02
2019-02-27T07:22:40.372Z,51.23
2019-02-27T07:23:47.156Z,54.33
2019-02-27T07:24:54.507Z,43.13
2019-02-27T07:26:01.194Z,46.58
2019-02-27T07:27:07.924Z,45.00
2019-02-27T07:28:14.561Z,41.70
2019-02-27T07:29:26.699Z,42.17
2019-02-27T07:30:29.654Z,40.10
2019-02-27T07:31:36.346Z,36.30
2019-02-27T07:32:43.290Z,37.17
2019-02-27T07:33:49.945Z,41.15
2019-02-27T07:34:56.644Z,44.33
2019-02-27T07:36:04.248Z,41.90
2019-02-27T07:37:12.937Z,39.13
2019-02-27T07:38:21.632Z,46.13
2019-02-27T07:39:32.597Z,42.80
2019-02-27T07:40:37.021Z,34.53
2019-02-27T07:41:44.055Z,38.35
2019-02-27T07:42:50.736Z,39.13
2019-02-27T07:43:57.773Z,41.55
2019-02-27T07:45:04.654Z,39.67
2019-02-27T07:46:11.382Z,33.65
2019-02-27T07:47:18.055Z,40.38
2019-02-27T07:48:25.022Z,46.15
2019-02-27T07:49:31.826Z,33.50
2019-02-27T07:50:38.950Z,39.08
2019-02-27T07:51:46.047Z,39.13
2019-02-27T07:52:52.810Z,42.55
2019-02-27T07:53:59.443Z,44.10
2019-02-27T07:55:18.646Z,41.43
2019-02-27T07:56:15.282Z,42.83
2019-02-27T07:57:21.930Z,37.40
2019-02-27T07:58:29.278Z,45.48
2019-02-27T07:59:38.249Z,45.10
2019-02-27T08:00:47.102Z,43.33
2019-02-27T08:01:54.202Z,52.73
2019-02-27T08:03:00.898Z,40.60
2019-02-27T08:04:07.978Z,43.37
2019-02-27T08:05:15.053Z,48.10
2019-02-27T08:06:23.551Z,43.50
2019-02-27T08:07:30.467Z,41.30
2019-02-27T08:08:37.157Z,44.03
2019-02-27T08:09:43.818Z,49.93
2019-02-27T08:10:50.505Z,46.03
2019-02-27T08:11:57.195Z,45.43
2019-02-27T08:13:04.495Z,40.30
2019-02-27T08:14:12.888Z,45.52
2019-02-27T08:15:20.132Z,43.43
2019-02-27T08:16:27.165Z,44.20
2019-02-27T08:17:34.262Z,42.75
2019-02-27T08:18:40.927Z,49.60
2019-02-27T08:19:47.652Z,47.03
2019-02-27T08:20:54.495Z,39.20
2019-02-27T08:22:01.914Z,43.53
2019-02-27T08:23:08.589Z,52.83
2019-02-27T08:24:15.248Z,35.57
2019-02-27T08:25:22.007Z,40.80
2019-02-27T08:26:29.026Z,37.10
2019-02-27T08:27:35.751Z,43.20
2019-02-27T08:28:42.470Z,40.90
2019-02-27T08:29:49.130Z,40.60
2019-02-27T08:30:55.814Z,42.73
2019-02-27T08:32:05.275Z,40.53
2019-02-27T08:33:12.057Z,36.77
2019-02-27T08:34:18.686Z,39.57
2019-02-27T08:35:25.772Z,37.63
2019-02-27T08:36:32.485Z,38.57
2019-02-27T08:37:39.822Z,36.57
2019-02-27T08:38:46.573Z,36.17
2019-02-27T08:39:53.629Z,38.93
2019-02-27T08:41:00.630Z,42.20
2019-02-27T08:42:07.423Z,35.00
2019-02-27T08:43:14.508Z,41.60
2019-02-27T08:44:21.273Z,34.93
2019-02-27T08:45:27.930Z,33.23
2019-02-27T08:46:37.006Z,37.13
2019-02-27T08:47:44.300Z,32.50
2019-02-27T08:48:51.946Z,32.43
2019-02-27T08:49:58.675Z,39.20
2019-02-27T08:51:08.637Z,38.33
2019-02-27T08:52:16.255Z,37.67
2019-02-27T08:53:25.986Z,34.00
2019-02-27T08:54:33.005Z,40.53
2019-02-27T08:55:40.776Z,33.20
2019-02-27T08:56:47.971Z,36.97
2019-02-27T08:57:56.930Z,33.97
2019-02-27T08:59:05.863Z,28.27
2019-02-27T09:00:17.886Z,36.23
2019-02-27T09:01:24.810Z,38.10
2019-02-27T09:02:31.477Z,33.03
2019-02-27T09:03:38.508Z,36.37
2019-02-27T09:04:45.432Z,31.07
2019-02-27T09:05:53.693Z,32.07
2019-02-27T09:07:02.742Z,33.80
2019-02-27T09:08:10.108Z,38.77
2019-02-27T09:09:17.819Z,32.87
2019-02-27T09:10:26.823Z,33.77
2019-02-27T09:11:34.148Z,33.90
2019-02-27T09:12:40.851Z,34.53
2019-02-27T09:13:47.516Z,30.80
2019-02-27T09:14:56.052Z,28.13
2019-02-27T09:16:03.099Z,32.73
2019-02-27T09:17:09.907Z,30.17
2019-02-27T09:18:16.640Z,29.60
2019-02-27T09:19:23.316Z,35.67
2019-02-27T09:20:30.309Z,29.70
2019-02-27T09:21:37.246Z,35.87
2019-02-27T09:22:44.255Z,31.17
2019-02-27T09:23:50.987Z,34.13
2019-02-27T09:24:57.991Z,33.70
2019-02-27T09:26:04.797Z,38.80
2019-02-27T09:27:11.833Z,31.90
2019-02-27T09:28:18.521Z,31.03
2019-02-27T09:29:25.268Z,31.37
2019-02-27T09:30:32.318Z,28.97
2019-02-27T09:31:47.812Z,33.33
2019-02-27T09:32:48.033Z,40.07
2019-02-27T09:33:54.715Z,28.43
2019-02-27T09:35:01.685Z,29.23
2019-02-27T09:36:10.361Z,31.30
2019-02-27T09:37:17.862Z,28.00
2019-02-27T09:38:24.928Z,34.70
2019-02-27T09:39:31.964Z,29.73
2019-02-27T09:40:39.559Z,30.63
2019-02-27T09:41:47.075Z,27.80
2019-02-27T09:42:54.258Z,25.83
2019-02-27T09:44:01.395Z,26.27
2019-02-27T09:45:20.136Z,26.30
2019-02-27T09:46:27.392Z,25.77
2019-02-27T09:47:34.639Z,28.80
2019-02-27T09:48:41.888Z,28.33
2019-02-27T09:49:48.993Z,29.70
2019-02-27T09:50:56.992Z,33.50
2019-02-27T09:52:03.858Z,33.97
2019-02-27T09:53:10.531Z,30.03
2019-02-27T09:54:17.176Z,29.10
2019-02-27T09:55:24.182Z,37.90
2019-02-27T09:56:32.747Z,27.03
2019-02-27T09:57:39.655Z,31.30
2019-02-27T09:58:46.387Z,31.50
2019-02-27T09:59:53.560Z,27.60
2019-02-27T10:01:13.909Z,26.10
2019-02-27T10:02:20.968Z,25.70
2019-02-27T10:03:28.158Z,27.10
2019-02-27T10:04:35.526Z,31.20
2019-02-27T10:05:42.214Z,27.10
2019-02-27T10:06:49.237Z,38.43
2019-02-27T10:07:57.503Z,26.67
2019-02-27T10:09:06.093Z,25.77
2019-02-27T10:10:12.767Z,29.83
2019-02-27T10:11:22.107Z,30.33
2019-02-27T10:12:28.241Z,30.83
2019-02-27T10:13:35.453Z,30.37
2019-02-27T10:14:43.318Z,33.93
2019-02-27T10:15:50.035Z,30.93
2019-02-27T10:16:56.709Z,29.70
2019-02-27T10:18:03.749Z,32.20
2019-02-27T10:19:10.457Z,29.37
2019-02-27T10:20:17.479Z,29.60
2019-02-27T10:21:24.455Z,27.43
2019-02-27T10:22:31.695Z,24.57
2019-02-27T10:23:38.392Z,26.37
2019-02-27T10:24:45.999Z,29.93
2019-02-27T10:25:53.237Z,30.17
2019-02-27T10:27:00.016Z,26.13
2019-02-27T10:28:06.946Z,31.43
2019-02-27T10:29:14.250Z,32.50
2019-02-27T10:30:21.084Z,31.70
2019-02-27T10:31:27.767Z,34.43
2019-02-27T10:32:36.688Z,28.13
2019-02-27T10:33:43.669Z,27.60
2019-02-27T10:34:53.676Z,29.00
2019-02-27T10:36:03.253Z,30.00
2019-02-27T10:37:07.725Z,27.07
2019-02-27T10:38:14.833Z,29.70
2019-02-27T10:39:21.619Z,24.40
2019-02-27T10:40:28.366Z,29.77
2019-02-27T10:41:35.024Z,27.93
2019-02-27T10:42:42.485Z,33.03
2019-02-27T10:43:49.496Z,30.43
2019-02-27T10:44:57.848Z,28.83
2019-02-27T10:46:05.116Z,30.20
2019-02-27T10:47:12.281Z,29.23
2019-02-27T10:48:19.036Z,31.33
2019-02-27T10:49:25.701Z,27.23
2019-02-27T10:50:35.518Z,30.33
2019-02-27T10:51:43.785Z,29.30
2019-02-27T10:52:50.581Z,26.53
2019-02-27T10:54:02.441Z,29.47
2019-02-27T10:55:05.864Z,26.00
2019-02-27T10:56:12.648Z,29.07
2019-02-27T10:57:19.813Z,39.53
2019-02-27T10:58:26.501Z,29.47
2019-02-27T10:59:33.180Z,28.40
2019-02-27T11:00:40.187Z,32.43
2019-02-27T11:01:48.559Z,30.53
2019-02-27T11:02:55.426Z,32.50
2019-02-27T11:04:03.121Z,33.57
2019-02-27T11:05:10.523Z,27.80
2019-02-27T11:06:17.204Z,26.27
2019-02-27T11:07:23.925Z,29.53
2019-02-27T11:08:30.603Z,28.73
2019-02-27T11:09:38.311Z,31.30
2019-02-27T11:10:47.018Z,32.93
2019-02-27T11:11:53.985Z,29.97
2019-02-27T11:13:05.721Z,28.23
2019-02-27T11:14:10.285Z,35.07
2019-02-27T11:15:18.032Z,27.80
2019-02-27T11:16:24.750Z,29.37
2019-02-27T11:17:31.745Z,26.87
2019-02-27T11:18:38.706Z,33.30
2019-02-27T11:19:45.895Z,29.27
2019-02-27T11:20:55.722Z,27.47
2019-02-27T11:22:01.626Z,23.90
2019-02-27T11:23:08.437Z,24.70
2019-02-27T11:24:17.326Z,39.40
2019-02-27T11:25:24.180Z,30.00
2019-02-27T11:26:33.327Z,32.77
2019-02-27T11:27:39.795Z,24.40
2019-02-27T11:28:47.704Z,28.60
2019-02-27T11:29:59.614Z,27.73
2019-02-27T11:31:04.094Z,24.87
2019-02-27T11:32:11.094Z,24.57
2019-02-27T11:33:25.748Z,35.50
2019-02-27T11:34:26.456Z,25.53
2019-02-27T11:35:33.503Z,29.70
2019-02-27T11:36:40.169Z,28.83
2019-02-27T11:37:47.797Z,24.83
2019-02-27T11:38:56.704Z,33.40
2019-02-27T11:40:05.344Z,28.27
2019-02-27T11:41:14.918Z,28.43
2019-02-27T11:42:20.749Z,23.63
2019-02-27T11:43:27.735Z,34.63
2019-02-27T11:44:34.479Z,31.03
2019-02-27T11:45:41.249Z,28.60
2019-02-27T11:46:58.451Z,24.20
2019-02-27T11:47:56.695Z,27.87
2019-02-27T11:49:03.760Z,24.23
2019-02-27T11:50:14.675Z,24.40
2019-02-27T11:51:21.292Z,24.53
2019-02-27T11:52:28.820Z,26.13
2019-02-27T11:53:36.539Z,26.60
2019-02-27T11:54:43.932Z,32.40
2019-02-27T11:55:50.617Z,23.27
2019-02-27T11:56:57.637Z,27.80
2019-02-27T11:58:05.485Z,26.30
2019-02-27T11:59:12.985Z,25.80
2019-02-27T12:00:26.840Z,25.77
2019-02-27T12:01:33.491Z,25.80
2019-02-27T12:02:40.928Z,28.93
2019-02-27T12:03:47.622Z,29.23
2019-02-27T12:04:56.677Z,25.60
2019-02-27T12:06:05.355Z,22.87
2019-02-27T12:07:12.346Z,22.70
2019-02-27T12:08:19.607Z,22.50
2019-02-27T12:09:26.885Z,28.13
2019-02-27T12:10:33.691Z,20.00
2019-02-27T12:11:40.813Z,23.33
2019-02-27T12:12:47.439Z,18.67
2019-02-27T12:13:54.888Z,20.77
2019-02-27T12:15:01.679Z,20.43
2019-02-27T12:16:10.664Z,16.47
2019-02-27T12:17:17.471Z,20.73
2019-02-27T12:18:24.510Z,22.60
2019-02-27T12:19:31.194Z,18.23
2019-02-27T12:20:38.370Z,17.53
2019-02-27T12:21:45.023Z,15.63
2019-02-27T12:22:52.360Z,18.23
2019-02-27T12:23:59.028Z,18.80
2019-02-27T12:25:06.374Z,18.00
2019-02-27T12:26:13.448Z,18.27
2019-02-27T12:27:42.750Z,19.40
2019-02-27T12:28:28.539Z,18.30
2019-02-27T12:29:35.231Z,16.40
2019-02-27T12:30:41.933Z,17.30
2019-02-27T12:31:49.026Z,16.10
2019-02-27T12:32:56.991Z,17.27
2019-02-27T12:34:03.895Z,18.03
2019-02-27T12:35:15.385Z,19.30
2019-02-27T12:36:22.133Z,16.67
2019-02-27T12:37:34.097Z,21.73
2019-02-27T12:38:39.290Z,16.13
2019-02-27T12:39:47.247Z,19.03
2019-02-27T12:40:58.241Z,18.57
2019-02-27T12:42:04.240Z,15.93
2019-02-27T12:43:17.388Z,21.37
2019-02-27T12:44:20.221Z,19.13
2019-02-27T12:45:29.530Z,17.73
2019-02-27T12:46:37.081Z,16.17
2019-02-27T12:47:44.759Z,19.33
2019-02-27T12:48:51.465Z,16.73
2019-02-27T12:49:58.108Z,16.93
2019-02-27T12:51:05.278Z,19.33
2019-02-27T12:52:12.351Z,17.70
2019-02-27T12:53:21.596Z,18.53
2019-02-27T12:54:29.969Z,12.97
2019-02-27T12:55:36.661Z,20.77
2019-02-27T12:56:44.551Z,18.23
2019-02-27T12:57:52.988Z,21.07
2019-02-27T12:58:59.944Z,20.87
2019-02-27T13:00:09.071Z,22.57
2019-02-27T13:01:16.365Z,18.90
2019-02-27T13:02:34.616Z,19.73
2019-02-27T13:03:32.421Z,20.43
2019-02-27T13:04:39.153Z,15.40
2019-02-27T13:05:45.793Z,20.30
2019-02-27T13:06:52.845Z,21.37
2019-02-27T13:07:59.793Z,21.87
2019-02-27T13:09:08.132Z,14.80
2019-02-27T13:10:18.035Z,17.90
2019-02-27T13:11:24.761Z,16.37
2019-02-27T13:12:31.704Z,15.57
2019-02-27T13:13:38.835Z,23.13
2019-02-27T13:14:45.482Z,16.47
2019-02-27T13:15:52.131Z,18.87
2019-02-27T13:16:59.285Z,22.83
2019-02-27T13:18:06.497Z,19.47
2019-02-27T13:19:13.198Z,18.23
2019-02-27T13:20:22.740Z,21.30
2019-02-27T13:21:29.479Z,19.00
2019-02-27T13:22:36.260Z,25.00
2019-02-27T13:23:43.307Z,19.90
2019-02-27T13:24:50.961Z,23.23
2019-02-27T13:26:00.456Z,21.27
2019-02-27T13:27:09.012Z,18.37
2019-02-27T13:28:15.428Z,24.60
2019-02-27T13:29:23.115Z,21.97
2019-02-27T13:30:30.486Z,24.73
2019-02-27T13:31:37.176Z,18.30
2019-02-27T13:32:43.921Z,22.07
2019-02-27T13:33:50.707Z,19.10
2019-02-27T13:34:57.389Z,19.10
2019-02-27T13:36:04.396Z,19.20
2019-02-27T13:37:11.109Z,18.93
2019-02-27T13:38:18.596Z,18.70
2019-02-27T13:39:26.338Z,20.20
2019-02-27T13:40:35.821Z,19.37
2019-02-27T13:41:44.730Z,17.80
2019-02-27T13:42:53.316Z,19.17
2019-02-27T13:44:01.358Z,16.03
2019-02-27T13:45:12.670Z,21.30
2019-02-27T13:46:20.175Z,19.23
2019-02-27T13:47:28.659Z,19.20
2019-02-27T13:48:37.376Z,19.43
2019-02-27T13:49:45.054Z,19.43
2019-02-27T13:50:52.677Z,16.93
2019-02-27T13:51:59.337Z,20.30
2019-02-27T13:53:06.388Z,17.70
2019-02-27T13:54:13.430Z,18.73
2019-02-27T13:55:20.923Z,19.20
2019-02-27T13:56:28.186Z,15.30
2019-02-27T13:57:35.259Z,22.23
2019-02-27T13:58:41.941Z,15.77
2019-02-27T13:59:48.939Z,23.53
2019-02-27T14:00:55.627Z,17.87
2019-02-27T14:02:04.022Z,16.27
2019-02-27T14:03:12.691Z,16.27
2019-02-27T14:04:21.851Z,22.27
2019-02-27T14:05:29.559Z,15.93
2019-02-27T14:06:36.761Z,16.37
2019-02-27T14:07:43.809Z,17.57
2019-02-27T14:08:50.508Z,16.17
2019-02-27T14:09:57.150Z,21.40
2019-02-27T14:11:04.913Z,19.97
2019-02-27T14:12:11.561Z,14.40
2019-02-27T14:13:18.558Z,17.87
2019-02-27T14:14:25.275Z,19.20
2019-02-27T14:15:32.335Z,14.10
2019-02-27T14:16:39.331Z,26.90
2019-02-27T14:17:46.071Z,18.70
2019-02-27T14:18:54.159Z,19.27
2019-02-27T14:20:01.282Z,18.63
2019-02-27T14:21:08.400Z,21.87
2019-02-27T14:22:15.460Z,17.10
2019-02-27T14:23:22.164Z,18.70
2019-02-27T14:24:29.495Z,15.17
2019-02-27T14:25:36.183Z,18.50
2019-02-27T14:26:44.778Z,20.13
2019-02-27T14:27:51.929Z,15.43
2019-02-27T14:28:58.616Z,18.50
2019-02-27T14:30:07.033Z,16.23
2019-02-27T14:31:13.702Z,15.40
2019-02-27T14:32:21.367Z,12.00
2019-02-27T14:33:28.207Z,17.30
2019-02-27T14:34:35.369Z,12.90
2019-02-27T14:35:42.082Z,18.90
2019-02-27T14:36:49.079Z,12.37
2019-02-27T14:37:55.897Z,16.80
2019-02-27T14:39:03.298Z,17.03
2019-02-27T14:40:13.638Z,15.17
2019-02-27T14:41:20.383Z,15.17
2019-02-27T14:42:27.450Z,15.27
2019-02-27T14:43:34.449Z,14.73
2019-02-27T14:44:42.872Z,21.43
2019-02-27T14:45:50.786Z,14.90
2019-02-27T14:46:58.106Z,18.13
2019-02-27T14:48:05.261Z,14.20
2019-02-27T14:49:13.289Z,15.90
2019-02-27T14:50:22.357Z,17.83
2019-02-27T14:51:29.070Z,13.90
2019-02-27T14:52:35.814Z,14.37
2019-02-27T14:53:42.563Z,17.43
2019-02-27T14:54:49.509Z,12.87
2019-02-27T14:55:56.187Z,13.20
2019-02-27T14:57:03.219Z,17.50
2019-02-27T14:58:10.101Z,10.73
2019-02-27T14:59:16.794Z,13.93
2019-02-27T15:00:29.522Z,12.17
2019-02-27T15:01:36.182Z,12.90
2019-02-27T15:02:42.894Z,15.77
2019-02-27T15:03:50.155Z,16.17
2019-02-27T15:04:56.806Z,15.97
2019-02-27T15:06:03.533Z,9.77
2019-02-27T15:07:10.187Z,10.50
2019-02-27T15:08:16.923Z,11.10
2019-02-27T15:09:23.986Z,12.47
2019-02-27T15:10:30.669Z,10.63
2019-02-27T15:11:37.431Z,14.77
2019-02-27T15:12:44.086Z,21.73
2019-02-27T15:13:50.773Z,12.77
2019-02-27T15:14:58.145Z,13.10
2019-02-27T15:16:05.441Z,19.00